sensor_id;sensor_type;location;lat;lon;timestamp;temperature;humidity
44886;DHT22;36669;51.428;21.162;2023-02-24T00:02:11;5.80;99.90
44886;DHT22;36669;51.428;21.162;2023-02-24T00:04:41;5.80;99.90
44886;DHT22;36669;51.428;21.162;2023-02-24T00:07:08;5.80;99.90
44886;DHT22;36669;51.428;21.162;2023-02-24T00:09:38;5.70;99.90
44886;DHT22;36669;51.428;21.162;2023-02-24T00:12:09;5.70;99.90
44886;DHT22;36669;51.428;21.162;2023-02-24T00:14:37;5.70;99.90
44886;DHT22;36669;51.428;21.162;2023-02-24T00:17:04;5.70;99.90
44886;DHT22;36669;51.428;21.162;2023-02-24T00:19:34;5.80;99.90
44886;DHT22;36669;51.428;21.162;2023-02-24T00:22:04;5.80;99.90
44886;DHT22;36669;51.428;21.162;2023-02-24T00:24:33;5.80;99.90
44886;DHT22;36669;51.428;21.162;2023-02-24T00:27:03;5.80;99.90
44886;DHT22;36669;51.428;21.162;2023-02-24T00:29:39;5.80;99.90
44886;DHT22;36669;51.428;21.162;2023-02-24T00:32:08;5.80;99.90
44886;DHT22;36669;51.428;21.162;2023-02-24T00:34:38;5.80;99.90
44886;DHT22;36669;51.428;21.162;2023-02-24T00:37:05;5.80;99.90
44886;DHT22;36669;51.428;21.162;2023-02-24T00:39:39;5.90;99.90
44886;DHT22;36669;51.428;21.162;2023-02-24T00:42:06;6.00;99.90
44886;DHT22;36669;51.428;21.162;2023-02-24T00:44:43;6.00;99.90
44886;DHT22;36669;51.428;21.162;2023-02-24T00:47:11;6.10;99.90
44886;DHT22;36669;51.428;21.162;2023-02-24T00:49:40;6.10;99.90
44886;DHT22;36669;51.428;21.162;2023-02-24T00:52:17;6.10;99.90
44886;DHT22;36669;51.428;21.162;2023-02-24T00:54:45;6.10;99.90
44886;DHT22;36669;51.428;21.162;2023-02-24T00:57:13;6.10;99.90
44886;DHT22;36669;51.428;21.162;2023-02-24T00:59:49;6.20;99.90
44886;DHT22;36669;51.428;21.162;2023-02-24T01:02:16;6.20;99.90
44886;DHT22;36669;51.428;21.162;2023-02-24T01:04:45;6.10;99.90
44886;DHT22;36669;51.428;21.162;2023-02-24T01:07:11;6.20;99.90
44886;DHT22;36669;51.428;21.162;2023-02-24T01:09:39;6.20;99.90
44886;DHT22;36669;51.428;21.162;2023-02-24T01:12:11;6.20;99.90
44886;DHT22;36669;51.428;21.162;2023-02-24T01:14:48;6.20;99.90
44886;DHT22;36669;51.428;21.162;2023-02-24T01:17:19;6.20;99.90
44886;DHT22;36669;51.428;21.162;2023-02-24T01:19:49;6.20;99.90
44886;DHT22;36669;51.428;21.162;2023-02-24T01:22:16;6.30;99.90
44886;DHT22;36669;51.428;21.162;2023-02-24T01:24:44;6.30;99.90
44886;DHT22;36669;51.428;21.162;2023-02-24T01:27:14;6.30;99.90
44886;DHT22;36669;51.428;21.162;2023-02-24T01:29:50;6.40;99.90
44886;DHT22;36669;51.428;21.162;2023-02-24T01:32:19;6.40;99.90
44886;DHT22;36669;51.428;21.162;2023-02-24T01:34:50;6.40;99.90
44886;DHT22;36669;51.428;21.162;2023-02-24T01:37:18;6.40;99.90
44886;DHT22;36669;51.428;21.162;2023-02-24T01:39:46;6.40;99.90
44886;DHT22;36669;51.428;21.162;2023-02-24T01:42:15;6.40;99.90
44886;DHT22;36669;51.428;21.162;2023-02-24T01:47:18;6.40;99.90
44886;DHT22;36669;51.428;21.162;2023-02-24T01:49:48;6.40;99.90
44886;DHT22;36669;51.428;21.162;2023-02-24T01:52:28;6.50;99.90
44886;DHT22;36669;51.428;21.162;2023-02-24T01:55:13;6.50;99.90
44886;DHT22;36669;51.428;21.162;2023-02-24T01:57:43;6.50;99.90
44886;DHT22;36669;51.428;21.162;2023-02-24T02:00:17;6.50;99.90
44886;DHT22;36669;51.428;21.162;2023-02-24T02:03:27;6.60;99.90
44886;DHT22;36669;51.428;21.162;2023-02-24T02:06:03;6.60;99.90
44886;DHT22;36669;51.428;21.162;2023-02-24T02:08:37;6.60;99.90
44886;DHT22;36669;51.428;21.162;2023-02-24T02:11:09;6.60;99.90
44886;DHT22;36669;51.428;21.162;2023-02-24T02:13:41;6.70;99.90
44886;DHT22;36669;51.428;21.162;2023-02-24T02:37:12;6.90;99.90
44886;DHT22;36669;51.428;21.162;2023-02-24T02:40:11;7.00;99.90
44886;DHT22;36669;51.428;21.162;2023-02-24T02:43:03;7.00;99.90
44886;DHT22;36669;51.428;21.162;2023-02-24T02:45:38;7.00;99.90
44886;DHT22;36669;51.428;21.162;2023-02-24T02:48:57;7.10;99.90
44886;DHT22;36669;51.428;21.162;2023-02-24T02:51:32;7.10;99.90
44886;DHT22;36669;51.428;21.162;2023-02-24T02:56:48;7.10;99.90
44886;DHT22;36669;51.428;21.162;2023-02-24T02:59:16;7.10;99.90
44886;DHT22;36669;51.428;21.162;2023-02-24T03:01:48;7.10;99.90
44886;DHT22;36669;51.428;21.162;2023-02-24T03:04:18;7.10;99.90
44886;DHT22;36669;51.428;21.162;2023-02-24T03:07:02;7.20;99.90
44886;DHT22;36669;51.428;21.162;2023-02-24T03:09:37;7.20;99.90
44886;DHT22;36669;51.428;21.162;2023-02-24T03:12:18;7.20;99.90
44886;DHT22;36669;51.428;21.162;2023-02-24T03:14:48;7.20;99.90
44886;DHT22;36669;51.428;21.162;2023-02-24T03:17:20;7.20;99.90
44886;DHT22;36669;51.428;21.162;2023-02-24T03:19:51;7.20;99.90
44886;DHT22;36669;51.428;21.162;2023-02-24T03:22:54;7.20;99.90
44886;DHT22;36669;51.428;21.162;2023-02-24T03:25:36;7.20;99.90
44886;DHT22;36669;51.428;21.162;2023-02-24T03:28:10;7.20;99.90
44886;DHT22;36669;51.428;21.162;2023-02-24T03:30:53;7.20;99.90
44886;DHT22;36669;51.428;21.162;2023-02-24T03:33:28;7.20;99.90
44886;DHT22;36669;51.428;21.162;2023-02-24T03:35:56;7.20;99.90
44886;DHT22;36669;51.428;21.162;2023-02-24T03:38:29;7.20;99.90
44886;DHT22;36669;51.428;21.162;2023-02-24T03:40:57;7.20;99.90
44886;DHT22;36669;51.428;21.162;2023-02-24T03:43:31;7.20;99.90
44886;DHT22;36669;51.428;21.162;2023-02-24T03:45:59;7.20;99.90
44886;DHT22;36669;51.428;21.162;2023-02-24T03:48:30;7.30;99.90
44886;DHT22;36669;51.428;21.162;2023-02-24T03:50:59;7.30;99.90
44886;DHT22;36669;51.428;21.162;2023-02-24T03:59:44;7.30;99.90
44886;DHT22;36669;51.428;21.162;2023-02-24T04:02:34;7.30;99.90
44886;DHT22;36669;51.428;21.162;2023-02-24T04:05:31;7.30;99.90
44886;DHT22;36669;51.428;21.162;2023-02-24T04:08:06;7.30;99.90
44886;DHT22;36669;51.428;21.162;2023-02-24T04:10:59;7.30;99.90
44886;DHT22;36669;51.428;21.162;2023-02-24T04:13:50;7.30;99.90
44886;DHT22;36669;51.428;21.162;2023-02-24T04:19:30;7.30;99.90
44886;DHT22;36669;51.428;21.162;2023-02-24T04:21:58;7.30;99.90
44886;DHT22;36669;51.428;21.162;2023-02-24T04:24:29;7.30;99.90
44886;DHT22;36669;51.428;21.162;2023-02-24T04:27:01;7.30;99.90
44886;DHT22;36669;51.428;21.162;2023-02-24T04:29:33;7.30;99.90
44886;DHT22;36669;51.428;21.162;2023-02-24T04:32:08;7.30;99.90
44886;DHT22;36669;51.428;21.162;2023-02-24T04:34:37;7.30;99.90
44886;DHT22;36669;51.428;21.162;2023-02-24T04:37:05;7.30;99.90
44886;DHT22;36669;51.428;21.162;2023-02-24T04:39:34;7.30;99.90
44886;DHT22;36669;51.428;21.162;2023-02-24T04:42:05;7.30;99.90
44886;DHT22;36669;51.428;21.162;2023-02-24T04:44:32;7.30;99.90
44886;DHT22;36669;51.428;21.162;2023-02-24T04:46:58;7.40;99.90
44886;DHT22;36669;51.428;21.162;2023-02-24T04:49:27;7.40;99.90
44886;DHT22;36669;51.428;21.162;2023-02-24T04:51:54;7.40;99.90
44886;DHT22;36669;51.428;21.162;2023-02-24T04:54:24;7.40;99.90
44886;DHT22;36669;51.428;21.162;2023-02-24T04:56:51;7.40;99.90
44886;DHT22;36669;51.428;21.162;2023-02-24T04:59:21;7.40;99.90
44886;DHT22;36669;51.428;21.162;2023-02-24T05:01:50;7.50;99.90
44886;DHT22;36669;51.428;21.162;2023-02-24T05:04:20;7.50;99.90
44886;DHT22;36669;51.428;21.162;2023-02-24T05:06:48;7.50;99.90
44886;DHT22;36669;51.428;21.162;2023-02-24T05:09:16;7.50;99.90
44886;DHT22;36669;51.428;21.162;2023-02-24T05:11:47;7.50;99.90
44886;DHT22;36669;51.428;21.162;2023-02-24T05:14:18;7.50;99.90
44886;DHT22;36669;51.428;21.162;2023-02-24T05:16:47;7.50;99.90
44886;DHT22;36669;51.428;21.162;2023-02-24T05:19:17;7.50;99.90
44886;DHT22;36669;51.428;21.162;2023-02-24T05:22:02;7.50;99.90
44886;DHT22;36669;51.428;21.162;2023-02-24T05:24:41;7.50;99.90
44886;DHT22;36669;51.428;21.162;2023-02-24T05:27:08;7.50;99.90
44886;DHT22;36669;51.428;21.162;2023-02-24T05:29:36;7.50;99.90
44886;DHT22;36669;51.428;21.162;2023-02-24T05:32:03;7.50;99.90
44886;DHT22;36669;51.428;21.162;2023-02-24T05:34:32;7.50;99.90
44886;DHT22;36669;51.428;21.162;2023-02-24T05:37:02;7.50;99.90
44886;DHT22;36669;51.428;21.162;2023-02-24T05:39:35;7.50;99.90
44886;DHT22;36669;51.428;21.162;2023-02-24T05:42:03;7.50;99.90
44886;DHT22;36669;51.428;21.162;2023-02-24T05:44:34;7.50;99.90
44886;DHT22;36669;51.428;21.162;2023-02-24T05:47:02;7.50;99.90
44886;DHT22;36669;51.428;21.162;2023-02-24T05:49:33;7.50;99.90
44886;DHT22;36669;51.428;21.162;2023-02-24T05:52:06;7.50;99.90
44886;DHT22;36669;51.428;21.162;2023-02-24T05:54:39;7.50;99.90
44886;DHT22;36669;51.428;21.162;2023-02-24T05:57:11;7.50;99.90
44886;DHT22;36669;51.428;21.162;2023-02-24T05:59:42;7.50;99.90
44886;DHT22;36669;51.428;21.162;2023-02-24T06:02:11;7.50;99.90
44886;DHT22;36669;51.428;21.162;2023-02-24T06:04:44;7.50;99.90
44886;DHT22;36669;51.428;21.162;2023-02-24T06:07:26;7.50;99.90
44886;DHT22;36669;51.428;21.162;2023-02-24T06:09:54;7.50;99.90
44886;DHT22;36669;51.428;21.162;2023-02-24T06:12:26;7.50;99.90
44886;DHT22;36669;51.428;21.162;2023-02-24T06:14:57;7.50;99.90
44886;DHT22;36669;51.428;21.162;2023-02-24T06:17:28;7.50;99.90
44886;DHT22;36669;51.428;21.162;2023-02-24T06:19:57;7.40;99.90
44886;DHT22;36669;51.428;21.162;2023-02-24T06:22:25;7.40;99.90
44886;DHT22;36669;51.428;21.162;2023-02-24T06:24:53;7.40;99.90
44886;DHT22;36669;51.428;21.162;2023-02-24T06:27:20;7.30;99.90
44886;DHT22;36669;51.428;21.162;2023-02-24T06:29:53;7.30;99.90
44886;DHT22;36669;51.428;21.162;2023-02-24T06:32:30;7.30;99.90
44886;DHT22;36669;51.428;21.162;2023-02-24T06:34:57;7.40;99.90
44886;DHT22;36669;51.428;21.162;2023-02-24T06:37:25;7.40;99.90
44886;DHT22;36669;51.428;21.162;2023-02-24T06:39:54;7.30;99.90
44886;DHT22;36669;51.428;21.162;2023-02-24T06:42:20;7.30;99.90
44886;DHT22;36669;51.428;21.162;2023-02-24T06:44:47;7.30;99.90
44886;DHT22;36669;51.428;21.162;2023-02-24T06:47:16;7.30;99.90
44886;DHT22;36669;51.428;21.162;2023-02-24T06:49:44;7.30;99.90
44886;DHT22;36669;51.428;21.162;2023-02-24T06:52:11;7.30;99.90
44886;DHT22;36669;51.428;21.162;2023-02-24T06:54:46;7.30;99.90
44886;DHT22;36669;51.428;21.162;2023-02-24T06:57:13;7.30;99.90
44886;DHT22;36669;51.428;21.162;2023-02-24T06:59:41;7.30;99.90
44886;DHT22;36669;51.428;21.162;2023-02-24T07:02:18;7.20;99.90
44886;DHT22;36669;51.428;21.162;2023-02-24T07:04:45;7.20;99.90
44886;DHT22;36669;51.428;21.162;2023-02-24T07:07:13;7.20;99.90
44886;DHT22;36669;51.428;21.162;2023-02-24T07:09:40;7.20;99.90
44886;DHT22;36669;51.428;21.162;2023-02-24T07:12:07;7.10;99.90
44886;DHT22;36669;51.428;21.162;2023-02-24T07:14:37;7.20;99.90
44886;DHT22;36669;51.428;21.162;2023-02-24T07:17:04;7.10;99.90
44886;DHT22;36669;51.428;21.162;2023-02-24T07:19:32;7.10;99.90
44886;DHT22;36669;51.428;21.162;2023-02-24T07:22:01;7.10;99.90
44886;DHT22;36669;51.428;21.162;2023-02-24T07:24:36;7.10;99.90
44886;DHT22;36669;51.428;21.162;2023-02-24T07:27:12;7.10;99.90
44886;DHT22;36669;51.428;21.162;2023-02-24T07:29:47;7.00;99.90
44886;DHT22;36669;51.428;21.162;2023-02-24T07:32:16;7.00;99.90
44886;DHT22;36669;51.428;21.162;2023-02-24T07:34:42;7.00;99.90
44886;DHT22;36669;51.428;21.162;2023-02-24T07:37:09;6.90;99.90
44886;DHT22;36669;51.428;21.162;2023-02-24T07:39:37;6.90;99.90
44886;DHT22;36669;51.428;21.162;2023-02-24T07:42:08;6.90;99.90
44886;DHT22;36669;51.428;21.162;2023-02-24T07:44:36;6.90;99.90
44886;DHT22;36669;51.428;21.162;2023-02-24T07:47:05;6.90;99.90
44886;DHT22;36669;51.428;21.162;2023-02-24T07:49:34;6.90;99.90
44886;DHT22;36669;51.428;21.162;2023-02-24T07:52:02;6.90;99.90
44886;DHT22;36669;51.428;21.162;2023-02-24T07:54:28;6.90;99.90
44886;DHT22;36669;51.428;21.162;2023-02-24T07:56:55;6.90;99.90
44886;DHT22;36669;51.428;21.162;2023-02-24T07:59:24;6.90;99.90
44886;DHT22;36669;51.428;21.162;2023-02-24T08:01:51;6.90;99.90
44886;DHT22;36669;51.428;21.162;2023-02-24T08:04:24;6.90;99.90
44886;DHT22;36669;51.428;21.162;2023-02-24T08:06:59;7.00;99.90
44886;DHT22;36669;51.428;21.162;2023-02-24T08:09:33;7.00;99.90
44886;DHT22;36669;51.428;21.162;2023-02-24T08:12:20;7.00;99.90
44886;DHT22;36669;51.428;21.162;2023-02-24T08:14:50;7.00;99.90
44886;DHT22;36669;51.428;21.162;2023-02-24T08:17:28;7.10;99.90
44886;DHT22;36669;51.428;21.162;2023-02-24T08:19:56;7.10;99.90
44886;DHT22;36669;51.428;21.162;2023-02-24T08:22:44;7.10;99.90
44886;DHT22;36669;51.428;21.162;2023-02-24T08:25:19;7.10;99.90
44886;DHT22;36669;51.428;21.162;2023-02-24T08:27:50;7.20;99.90
44886;DHT22;36669;51.428;21.162;2023-02-24T08:30:26;7.10;99.90
44886;DHT22;36669;51.428;21.162;2023-02-24T08:32:56;7.10;99.90
44886;DHT22;36669;51.428;21.162;2023-02-24T08:35:29;7.10;99.90
44886;DHT22;36669;51.428;21.162;2023-02-24T08:38:08;7.10;99.90
44886;DHT22;36669;51.428;21.162;2023-02-24T08:40:44;7.10;99.90
44886;DHT22;36669;51.428;21.162;2023-02-24T08:43:30;7.10;99.90
44886;DHT22;36669;51.428;21.162;2023-02-24T08:48:54;7.20;99.90
44886;DHT22;36669;51.428;21.162;2023-02-24T08:51:34;7.20;99.90
44886;DHT22;36669;51.428;21.162;2023-02-24T08:54:05;7.20;99.90
44886;DHT22;36669;51.428;21.162;2023-02-24T08:56:44;7.10;99.90
44886;DHT22;36669;51.428;21.162;2023-02-24T08:59:16;7.20;99.90
44886;DHT22;36669;51.428;21.162;2023-02-24T09:02:04;7.20;99.90
44886;DHT22;36669;51.428;21.162;2023-02-24T09:04:57;7.30;99.90
44886;DHT22;36669;51.428;21.162;2023-02-24T09:07:27;7.20;99.90
44886;DHT22;36669;51.428;21.162;2023-02-24T09:09:55;7.20;99.90
44886;DHT22;36669;51.428;21.162;2023-02-24T09:12:25;7.20;99.90
44886;DHT22;36669;51.428;21.162;2023-02-24T09:15:00;7.30;99.90
44886;DHT22;36669;51.428;21.162;2023-02-24T09:17:30;7.30;99.90
44886;DHT22;36669;51.428;21.162;2023-02-24T09:20:29;7.30;99.90
44886;DHT22;36669;51.428;21.162;2023-02-24T09:23:24;7.30;99.90
44886;DHT22;36669;51.428;21.162;2023-02-24T09:26:11;7.30;99.90
44886;DHT22;36669;51.428;21.162;2023-02-24T09:28:40;7.40;99.90
44886;DHT22;36669;51.428;21.162;2023-02-24T09:31:34;7.40;99.90
44886;DHT22;36669;51.428;21.162;2023-02-24T09:34:21;7.50;99.90
44886;DHT22;36669;51.428;21.162;2023-02-24T09:36:56;7.50;99.90
44886;DHT22;36669;51.428;21.162;2023-02-24T09:39:37;7.50;99.90
44886;DHT22;36669;51.428;21.162;2023-02-24T09:42:26;7.60;99.90
44886;DHT22;36669;51.428;21.162;2023-02-24T09:45:05;7.70;99.90
44886;DHT22;36669;51.428;21.162;2023-02-24T09:47:45;7.80;99.90
44886;DHT22;36669;51.428;21.162;2023-02-24T09:50:37;7.80;99.90
44886;DHT22;36669;51.428;21.162;2023-02-24T09:53:30;7.90;99.90
44886;DHT22;36669;51.428;21.162;2023-02-24T09:56:33;7.90;99.90
44886;DHT22;36669;51.428;21.162;2023-02-24T10:05:19;8.00;99.90
44886;DHT22;36669;51.428;21.162;2023-02-24T10:07:49;8.00;99.90
44886;DHT22;36669;51.428;21.162;2023-02-24T10:10:22;7.90;99.90
44886;DHT22;36669;51.428;21.162;2023-02-24T10:13:00;7.90;99.90
44886;DHT22;36669;51.428;21.162;2023-02-24T10:15:31;8.00;99.90
44886;DHT22;36669;51.428;21.162;2023-02-24T10:18:59;8.00;99.90
44886;DHT22;36669;51.428;21.162;2023-02-24T10:22:04;8.10;99.90
44886;DHT22;36669;51.428;21.162;2023-02-24T10:24:48;8.10;99.90
44886;DHT22;36669;51.428;21.162;2023-02-24T10:31:33;8.00;99.90
44886;DHT22;36669;51.428;21.162;2023-02-24T10:34:11;8.10;99.90
44886;DHT22;36669;51.428;21.162;2023-02-24T10:36:40;8.10;99.90
44886;DHT22;36669;51.428;21.162;2023-02-24T10:39:17;8.10;99.90
44886;DHT22;36669;51.428;21.162;2023-02-24T10:41:57;8.10;99.90
44886;DHT22;36669;51.428;21.162;2023-02-24T10:44:26;8.00;99.90
44886;DHT22;36669;51.428;21.162;2023-02-24T10:47:04;8.00;99.90
44886;DHT22;36669;51.428;21.162;2023-02-24T10:49:48;8.00;99.90
44886;DHT22;36669;51.428;21.162;2023-02-24T10:52:39;8.00;99.90
44886;DHT22;36669;51.428;21.162;2023-02-24T10:55:45;8.00;99.90
44886;DHT22;36669;51.428;21.162;2023-02-24T10:58:32;8.00;99.90
44886;DHT22;36669;51.428;21.162;2023-02-24T11:01:22;7.80;99.90
44886;DHT22;36669;51.428;21.162;2023-02-24T11:04:12;7.80;99.90
44886;DHT22;36669;51.428;21.162;2023-02-24T11:07:11;7.70;99.90
44886;DHT22;36669;51.428;21.162;2023-02-24T11:09:39;7.70;99.90
44886;DHT22;36669;51.428;21.162;2023-02-24T11:12:24;7.60;99.90
44886;DHT22;36669;51.428;21.162;2023-02-24T11:15:40;7.60;99.90
44886;DHT22;36669;51.428;21.162;2023-02-24T11:18:33;7.60;99.90
44886;DHT22;36669;51.428;21.162;2023-02-24T11:21:11;7.60;99.90
44886;DHT22;36669;51.428;21.162;2023-02-24T11:23:52;7.60;99.90
44886;DHT22;36669;51.428;21.162;2023-02-24T11:26:36;7.60;99.90
44886;DHT22;36669;51.428;21.162;2023-02-24T11:29:31;7.60;99.90
44886;DHT22;36669;51.428;21.162;2023-02-24T11:32:15;7.60;99.90
44886;DHT22;36669;51.428;21.162;2023-02-24T11:35:18;7.50;99.90
44886;DHT22;36669;51.428;21.162;2023-02-24T11:38:07;7.60;99.90
44886;DHT22;36669;51.428;21.162;2023-02-24T11:40:40;7.60;99.90
44886;DHT22;36669;51.428;21.162;2023-02-24T11:43:12;7.60;99.90
44886;DHT22;36669;51.428;21.162;2023-02-24T11:45:59;7.60;99.90
44886;DHT22;36669;51.428;21.162;2023-02-24T11:48:45;7.60;99.90
44886;DHT22;36669;51.428;21.162;2023-02-24T11:51:21;7.60;99.90
44886;DHT22;36669;51.428;21.162;2023-02-24T11:53:58;7.70;99.90
44886;DHT22;36669;51.428;21.162;2023-02-24T11:56:45;7.60;99.90
44886;DHT22;36669;51.428;21.162;2023-02-24T11:59:38;7.70;99.90
44886;DHT22;36669;51.428;21.162;2023-02-24T12:05:09;7.80;99.90
44886;DHT22;36669;51.428;21.162;2023-02-24T12:07:56;7.80;99.90
44886;DHT22;36669;51.428;21.162;2023-02-24T12:10:30;7.90;99.90
44886;DHT22;36669;51.428;21.162;2023-02-24T12:16:23;7.80;99.90
44886;DHT22;36669;51.428;21.162;2023-02-24T12:18:33;7.70;99.90
44886;DHT22;36669;51.428;21.162;2023-02-24T12:23:47;7.80;99.90
44886;DHT22;36669;51.428;21.162;2023-02-24T12:32:29;7.80;99.90
44886;DHT22;36669;51.428;21.162;2023-02-24T12:38:34;7.80;99.90
44886;DHT22;36669;51.428;21.162;2023-02-24T12:41:29;7.90;99.90
44886;DHT22;36669;51.428;21.162;2023-02-24T12:44:22;7.90;99.90
44886;DHT22;36669;51.428;21.162;2023-02-24T12:47:21;7.90;99.90
44886;DHT22;36669;51.428;21.162;2023-02-24T12:53:50;8.00;99.90
44886;DHT22;36669;51.428;21.162;2023-02-24T12:59:27;8.00;99.90
44886;DHT22;36669;51.428;21.162;2023-02-24T13:16:27;7.80;99.90
44886;DHT22;36669;51.428;21.162;2023-02-24T13:19:16;7.80;99.90
44886;DHT22;36669;51.428;21.162;2023-02-24T13:24:23;7.80;99.90
44886;DHT22;36669;51.428;21.162;2023-02-24T13:27:12;7.70;99.90
44886;DHT22;36669;51.428;21.162;2023-02-24T13:29:51;7.70;99.90
44886;DHT22;36669;51.428;21.162;2023-02-24T13:32:37;7.70;99.90
44886;DHT22;36669;51.428;21.162;2023-02-24T13:35:28;7.70;99.90
44886;DHT22;36669;51.428;21.162;2023-02-24T13:44:25;7.70;99.90
44886;DHT22;36669;51.428;21.162;2023-02-24T13:52:39;7.70;99.90
44886;DHT22;36669;51.428;21.162;2023-02-24T13:55:33;7.70;99.90
44886;DHT22;36669;51.428;21.162;2023-02-24T13:58:36;7.70;99.90
44886;DHT22;36669;51.428;21.162;2023-02-24T14:01:14;7.70;99.90
44886;DHT22;36669;51.428;21.162;2023-02-24T14:06:28;7.80;99.90
44886;DHT22;36669;51.428;21.162;2023-02-24T14:08:59;7.80;99.90
44886;DHT22;36669;51.428;21.162;2023-02-24T14:11:37;7.90;99.90
44886;DHT22;36669;51.428;21.162;2023-02-24T14:14:05;7.90;99.90
44886;DHT22;36669;51.428;21.162;2023-02-24T14:16:36;7.80;99.90
44886;DHT22;36669;51.428;21.162;2023-02-24T14:19:08;7.80;99.90
44886;DHT22;36669;51.428;21.162;2023-02-24T14:21:45;7.80;99.90
44886;DHT22;36669;51.428;21.162;2023-02-24T14:24:25;7.80;99.90
44886;DHT22;36669;51.428;21.162;2023-02-24T14:26:57;7.80;99.90
44886;DHT22;36669;51.428;21.162;2023-02-24T14:29:26;7.70;99.90
44886;DHT22;36669;51.428;21.162;2023-02-24T14:31:58;7.70;99.90
44886;DHT22;36669;51.428;21.162;2023-02-24T14:34:27;7.70;99.90
44886;DHT22;36669;51.428;21.162;2023-02-24T14:37:01;7.70;99.90
44886;DHT22;36669;51.428;21.162;2023-02-24T14:39:35;7.70;99.90
44886;DHT22;36669;51.428;21.162;2023-02-24T14:42:15;7.70;99.90
44886;DHT22;36669;51.428;21.162;2023-02-24T14:44:47;7.70;99.90
44886;DHT22;36669;51.428;21.162;2023-02-24T14:47:16;7.70;99.90
44886;DHT22;36669;51.428;21.162;2023-02-24T14:49:55;7.70;99.90
44886;DHT22;36669;51.428;21.162;2023-02-24T14:53:08;7.60;99.90
44886;DHT22;36669;51.428;21.162;2023-02-24T14:55:53;7.60;99.90
44886;DHT22;36669;51.428;21.162;2023-02-24T15:00:57;7.60;99.90
44886;DHT22;36669;51.428;21.162;2023-02-24T15:03:38;7.60;99.90
44886;DHT22;36669;51.428;21.162;2023-02-24T15:06:24;7.60;99.90
44886;DHT22;36669;51.428;21.162;2023-02-24T15:09:05;7.60;99.90
44886;DHT22;36669;51.428;21.162;2023-02-24T15:11:36;7.50;99.90
44886;DHT22;36669;51.428;21.162;2023-02-24T15:14:07;7.50;99.90
44886;DHT22;36669;51.428;21.162;2023-02-24T15:16:41;7.50;99.90
44886;DHT22;36669;51.428;21.162;2023-02-24T15:19:34;7.40;99.90
44886;DHT22;36669;51.428;21.162;2023-02-24T15:22:03;7.40;99.90
44886;DHT22;36669;51.428;21.162;2023-02-24T15:24:30;7.40;99.90
44886;DHT22;36669;51.428;21.162;2023-02-24T15:26:59;7.30;99.90
44886;DHT22;36669;51.428;21.162;2023-02-24T15:29:29;7.20;99.90
44886;DHT22;36669;51.428;21.162;2023-02-24T15:31:58;7.20;99.90
44886;DHT22;36669;51.428;21.162;2023-02-24T15:34:30;7.10;99.90
44886;DHT22;36669;51.428;21.162;2023-02-24T15:37:00;7.10;99.90
44886;DHT22;36669;51.428;21.162;2023-02-24T15:39:31;7.10;99.90
44886;DHT22;36669;51.428;21.162;2023-02-24T15:44:56;7.00;99.90
44886;DHT22;36669;51.428;21.162;2023-02-24T15:47:44;6.80;99.90
44886;DHT22;36669;51.428;21.162;2023-02-24T15:50:13;6.80;99.90
44886;DHT22;36669;51.428;21.162;2023-02-24T15:52:40;6.70;99.90
44886;DHT22;36669;51.428;21.162;2023-02-24T15:55:06;6.70;99.90
44886;DHT22;36669;51.428;21.162;2023-02-24T15:57:36;6.60;99.90
44886;DHT22;36669;51.428;21.162;2023-02-24T16:00:04;6.60;99.90
44886;DHT22;36669;51.428;21.162;2023-02-24T16:02:38;6.50;99.90
44886;DHT22;36669;51.428;21.162;2023-02-24T16:05:07;6.50;99.90
44886;DHT22;36669;51.428;21.162;2023-02-24T16:07:37;6.50;99.90
44886;DHT22;36669;51.428;21.162;2023-02-24T16:10:05;6.40;99.90
44886;DHT22;36669;51.428;21.162;2023-02-24T16:12:35;6.40;99.90
44886;DHT22;36669;51.428;21.162;2023-02-24T16:15:09;6.40;99.90
44886;DHT22;36669;51.428;21.162;2023-02-24T16:17:39;6.30;99.90
44886;DHT22;36669;51.428;21.162;2023-02-24T16:20:18;6.20;99.90
44886;DHT22;36669;51.428;21.162;2023-02-24T16:22:47;6.10;99.90
44886;DHT22;36669;51.428;21.162;2023-02-24T16:25:15;6.10;99.90
44886;DHT22;36669;51.428;21.162;2023-02-24T16:27:43;6.10;99.90
44886;DHT22;36669;51.428;21.162;2023-02-24T16:30:15;6.00;99.90
44886;DHT22;36669;51.428;21.162;2023-02-24T16:32:44;6.00;99.90
44886;DHT22;36669;51.428;21.162;2023-02-24T16:35:12;6.00;99.90
44886;DHT22;36669;51.428;21.162;2023-02-24T16:37:38;5.90;99.90
44886;DHT22;36669;51.428;21.162;2023-02-24T16:40:20;5.90;99.90
44886;DHT22;36669;51.428;21.162;2023-02-24T16:42:48;5.90;99.90
44886;DHT22;36669;51.428;21.162;2023-02-24T16:45:16;5.90;99.90
44886;DHT22;36669;51.428;21.162;2023-02-24T16:47:43;5.90;99.90
44886;DHT22;36669;51.428;21.162;2023-02-24T16:50:22;5.90;99.90
44886;DHT22;36669;51.428;21.162;2023-02-24T16:52:53;5.80;99.90
44886;DHT22;36669;51.428;21.162;2023-02-24T16:55:22;5.80;99.90
44886;DHT22;36669;51.428;21.162;2023-02-24T16:57:49;5.90;99.90
44886;DHT22;36669;51.428;21.162;2023-02-24T17:00:16;5.80;99.90
44886;DHT22;36669;51.428;21.162;2023-02-24T17:02:44;5.80;99.90
44886;DHT22;36669;51.428;21.162;2023-02-24T17:05:18;5.80;99.90
44886;DHT22;36669;51.428;21.162;2023-02-24T17:08:01;5.80;99.90
44886;DHT22;36669;51.428;21.162;2023-02-24T17:10:26;5.70;99.90
44886;DHT22;36669;51.428;21.162;2023-02-24T17:12:53;5.70;99.90
44886;DHT22;36669;51.428;21.162;2023-02-24T17:15:23;5.80;99.90
44886;DHT22;36669;51.428;21.162;2023-02-24T17:17:49;5.80;99.90
44886;DHT22;36669;51.428;21.162;2023-02-24T17:20:18;5.80;99.90
44886;DHT22;36669;51.428;21.162;2023-02-24T17:22:45;5.80;99.90
44886;DHT22;36669;51.428;21.162;2023-02-24T17:25:15;5.70;99.90
44886;DHT22;36669;51.428;21.162;2023-02-24T17:27:46;5.70;99.90
44886;DHT22;36669;51.428;21.162;2023-02-24T17:30:20;5.60;99.90
44886;DHT22;36669;51.428;21.162;2023-02-24T17:32:49;5.70;99.90
44886;DHT22;36669;51.428;21.162;2023-02-24T17:35:17;5.60;99.90
44886;DHT22;36669;51.428;21.162;2023-02-24T17:37:44;5.60;99.90
44886;DHT22;36669;51.428;21.162;2023-02-24T17:40:11;5.60;99.90
44886;DHT22;36669;51.428;21.162;2023-02-24T17:42:39;5.50;99.90
44886;DHT22;36669;51.428;21.162;2023-02-24T17:45:07;5.50;99.90
44886;DHT22;36669;51.428;21.162;2023-02-24T17:47:35;5.50;99.90
44886;DHT22;36669;51.428;21.162;2023-02-24T17:50:05;5.50;99.90
44886;DHT22;36669;51.428;21.162;2023-02-24T17:52:34;5.50;99.90
44886;DHT22;36669;51.428;21.162;2023-02-24T17:55:01;5.40;99.90
44886;DHT22;36669;51.428;21.162;2023-02-24T17:57:28;5.50;99.90
44886;DHT22;36669;51.428;21.162;2023-02-24T17:59:56;5.50;99.90
44886;DHT22;36669;51.428;21.162;2023-02-24T18:02:23;5.40;99.90
44886;DHT22;36669;51.428;21.162;2023-02-24T18:04:51;5.50;99.90
44886;DHT22;36669;51.428;21.162;2023-02-24T18:07:18;5.50;99.90
44886;DHT22;36669;51.428;21.162;2023-02-24T18:09:43;5.50;99.90